Tuesday, October 21, 2014
20:03 UTC
  |  Log In   |  Register Free
Airport Search:

Raleigh-Durham International Airport
(KRDU)

Airport information sponsored by:
Landmark Aviation - RDU at Raleigh-Durham International (KRDU), Raleigh/Durham, NC
FAA data valid effective September 18, 2014 - November 13, 2014 (unless otherwise noted).

 
 
 
 
 
 
 
 
 
 
 
 
 
 

Current Aviation Weather for Raleigh-Durham International Airport (KRDU)

The most recent METAR observation for KRDU was updated at: 1918
METAR Summary (Translated METAR)
KRDU
211851Z 28006KT 10SM SCT055 SCT080 22/09 A2984 RMK AO2 SLP103 T02220094
KIGX
211856Z AUTO VRB06KT 10SM SCT060 21/08 A2985 RMK AO2 SLP102 T02110078
(14 nm NW from KRDU)
KTTA
211855Z AUTO 26006KT 10SM SCT060 24/09 A2984 RMK AO2 T02360089
(23.4 nm SW from KRDU)
TAF Summary (Translated TAF)
KRDU
211733Z 2118/2218 23008KT P6SM SCT045 TEMPO 2122/2201 BKN050 FM220100 32010G20KT P6SM BKN060 FM221000 31010G16KT P6SM FEW035 FM221600 32012G20KT P6SM FEW040
  Airport Weather Conditions for KRDU

 Current Weather at RDU
72° F
Partly Cloudy
West winds at 6.9 mph
RDU NOAA Radar

Pressure: 29.84 in
Humidity: 44%
Wind: West at 6.9 MPH (6 KT)
Dew Point: 48.9°F
Visibility: 10.00 mi


Airport Weather Forecast for KRDU

Translated METAR and TAF for KRDU
Translated METAR for KRDU (1958 UTC 21 October 2014)
found at http://aviationweather.gov/adds/metars/
 
METAR text: KRDU 211951Z VRB04KT 10SM BKN060 BKN075 22/09 A2984 RMK AO2 SLP101 T02170089
Conditions at: KRDU (RALEIGH/DURHAM , NC, US) observed 1951 UTC 21 October 2014
Temperature: 21.7°C (71°F)
Dewpoint: 8.9°C (48°F) [RH = 44%]
Pressure (altimeter): 29.84 inches Hg (1010.6 mb)
[Sea-level pressure: 1010.1 mb]
Winds: variable direction winds at 5 MPH (4 knots; 2.1 m/s)
Visibility: 10 or more miles (16+ km)
Ceiling: 6000 feet AGL
Clouds: broken clouds at 6000 feet AGL
broken clouds at 7500 feet AGL
Weather: no significant weather observed at this time
Translated TAF for KRDU
Forecast for: KRDU (RALEIGH/DURHAM , NC, US)
TAF Text: KRDU 211733Z 2118/2218 23008KT P6SM SCT045
Forecast period: 1800 UTC 21 October 2014 to 0100 UTC 22 October 2014
Forecast type: FROM: standard forecast or significant change
Winds: from the SW (230 degrees) at 9 MPH (8 knots; 4.2 m/s)
Visibility: 6 or more miles (10+ km)
Clouds: scattered clouds at 4500 feet AGL
Weather: no significant weather forecast for this period
TAF Text: TEMPO 2122/2201 BKN050
Forecast period: 2200 UTC 21 October 2014 to 0100 UTC 22 October 2014
Forecast type: TEMPORARY: The following changes expected for less than half the time period
Ceiling: 5000 feet AGL
Clouds: broken clouds at 5000 feet AGL
Weather: no significant weather forecast for this period
TAF Text: FM220100 32010G20KT P6SM BKN060
Forecast period: 0100 to 1000 UTC 22 October 2014
Forecast type: FROM: standard forecast or significant change
Winds: from the NW (320 degrees) at 12 MPH (10 knots; 5.2 m/s)
gusting to 23 MPH (20 knots; 10.4 m/s)
Visibility: 6 or more miles (10+ km)
Ceiling: 6000 feet AGL
Clouds: broken clouds at 6000 feet AGL
Weather: no significant weather forecast for this period
TAF Text: FM221000 31010G16KT P6SM FEW035
Forecast period: 1000 to 1600 UTC 22 October 2014
Forecast type: FROM: standard forecast or significant change
Winds: from the NW (310 degrees) at 12 MPH (10 knots; 5.2 m/s)
gusting to 18 MPH (16 knots; 8.3 m/s)
Visibility: 6 or more miles (10+ km)
Clouds: few clouds at 3500 feet AGL
Weather: no significant weather forecast for this period
TAF Text: FM221600 32012G20KT P6SM FEW040
Forecast period: 1600 to 1800 UTC 22 October 2014
Forecast type: FROM: standard forecast or significant change
Winds: from the NW (320 degrees) at 14 MPH (12 knots; 6.2 m/s)
gusting to 23 MPH (20 knots; 10.4 m/s)
Visibility: 6 or more miles (10+ km)
Clouds: few clouds at 4000 feet AGL
Weather: no significant weather forecast for this period

Find All Airport Services Find A Hotel Find A Rental Car Find A Golf Course Find A Restaurant $100 Hamburger



FBO's on the Field
FBO Company Facility Photos Services Transportation Aviation Fuel Prices: Prices include tax
Catering Weather Repair Courtesy Rental Type 100LL JetA JetA+ MOGAS 8087
 
Landmark Aviation - RDU

Landmark Aviation - RDU logo
Currently rated 4.4 by 2 people
FS:
Last Updated: Oct-21
Login to update fuel prices
SS:
Contact Landmark Aviation - RDUMore FBO Information
 
Tac Air - RDU

Currently rated 1.8 by 3 people
FS:Avfuel
Last Updated: Sep-19
Login to update fuel prices
SS:
Contact Tac Air - RDUMore FBO Information
 
Add another FBO Facility Photos Catering Weather Repair Courtesy Rental Type 100LL JetA JetA+ MOGAS 8087
Services Transportation Aviation Fuel Prices: Prices include tax


model-print
model-print
model-print
model-print